sensor_id;sensor_type;location;lat;lon;timestamp;P1;durP1;ratioP1;P2;durP2;ratioP2
75005;SDS011;63553;51.814;4.600;2023-05-07T00:01:37;21.17;;;14.10;;
75005;SDS011;63553;51.814;4.600;2023-05-07T00:04:02;22.50;;;15.33;;
75005;SDS011;63553;51.814;4.600;2023-05-07T00:06:28;22.30;;;15.00;;
75005;SDS011;63553;51.814;4.600;2023-05-07T00:08:54;20.58;;;14.02;;
75005;SDS011;63553;51.814;4.600;2023-05-07T00:11:20;21.27;;;14.07;;
75005;SDS011;63553;51.814;4.600;2023-05-07T00:13:47;20.17;;;14.82;;
75005;SDS011;63553;51.814;4.600;2023-05-07T00:16:13;20.58;;;14.68;;
75005;SDS011;63553;51.814;4.600;2023-05-07T00:18:38;18.37;;;12.53;;
75005;SDS011;63553;51.814;4.600;2023-05-07T00:21:03;21.73;;;13.93;;
75005;SDS011;63553;51.814;4.600;2023-05-07T00:23:29;14.88;;;10.68;;
75005;SDS011;63553;51.814;4.600;2023-05-07T00:25:55;18.60;;;12.70;;
75005;SDS011;63553;51.814;4.600;2023-05-07T00:28:21;18.52;;;12.50;;
75005;SDS011;63553;51.814;4.600;2023-05-07T00:30:46;20.33;;;12.83;;
75005;SDS011;63553;51.814;4.600;2023-05-07T00:33:12;20.23;;;13.83;;
75005;SDS011;63553;51.814;4.600;2023-05-07T00:35:37;19.15;;;12.98;;
75005;SDS011;63553;51.814;4.600;2023-05-07T00:38:02;18.20;;;13.00;;
75005;SDS011;63553;51.814;4.600;2023-05-07T00:40:28;16.67;;;11.77;;
75005;SDS011;63553;51.814;4.600;2023-05-07T00:42:53;19.10;;;12.77;;
75005;SDS011;63553;51.814;4.600;2023-05-07T00:45:22;17.38;;;13.10;;
75005;SDS011;63553;51.814;4.600;2023-05-07T00:47:54;16.55;;;12.10;;
75005;SDS011;63553;51.814;4.600;2023-05-07T00:50:20;16.05;;;11.45;;
75005;SDS011;63553;51.814;4.600;2023-05-07T00:52:45;17.25;;;11.15;;
75005;SDS011;63553;51.814;4.600;2023-05-07T00:55:11;15.98;;;11.20;;
75005;SDS011;63553;51.814;4.600;2023-05-07T00:57:39;17.15;;;12.43;;
75005;SDS011;63553;51.814;4.600;2023-05-07T01:00:06;17.85;;;12.45;;
75005;SDS011;63553;51.814;4.600;2023-05-07T01:02:37;11.80;;;9.45;;
75005;SDS011;63553;51.814;4.600;2023-05-07T01:05:03;13.02;;;10.77;;
75005;SDS011;63553;51.814;4.600;2023-05-07T01:07:32;16.33;;;11.88;;
75005;SDS011;63553;51.814;4.600;2023-05-07T01:09:58;16.27;;;11.35;;
75005;SDS011;63553;51.814;4.600;2023-05-07T01:12:24;15.77;;;11.27;;
75005;SDS011;63553;51.814;4.600;2023-05-07T01:14:50;15.70;;;11.85;;
75005;SDS011;63553;51.814;4.600;2023-05-07T01:17:16;15.93;;;11.18;;
75005;SDS011;63553;51.814;4.600;2023-05-07T01:19:42;16.67;;;10.65;;
75005;SDS011;63553;51.814;4.600;2023-05-07T01:22:08;15.35;;;10.85;;
75005;SDS011;63553;51.814;4.600;2023-05-07T01:24:36;15.15;;;11.10;;
75005;SDS011;63553;51.814;4.600;2023-05-07T01:27:02;14.75;;;10.73;;
75005;SDS011;63553;51.814;4.600;2023-05-07T01:29:28;13.73;;;10.25;;
75005;SDS011;63553;51.814;4.600;2023-05-07T01:31:54;11.32;;;9.55;;
75005;SDS011;63553;51.814;4.600;2023-05-07T01:34:21;11.40;;;9.13;;
75005;SDS011;63553;51.814;4.600;2023-05-07T01:36:50;10.95;;;8.98;;
75005;SDS011;63553;51.814;4.600;2023-05-07T01:39:16;9.80;;;8.00;;
75005;SDS011;63553;51.814;4.600;2023-05-07T01:41:42;12.95;;;8.57;;
75005;SDS011;63553;51.814;4.600;2023-05-07T01:44:08;15.27;;;8.50;;
75005;SDS011;63553;51.814;4.600;2023-05-07T01:46:37;11.43;;;8.35;;
75005;SDS011;63553;51.814;4.600;2023-05-07T01:49:02;9.73;;;8.13;;
75005;SDS011;63553;51.814;4.600;2023-05-07T01:51:28;9.70;;;7.57;;
75005;SDS011;63553;51.814;4.600;2023-05-07T01:53:54;8.95;;;7.13;;
75005;SDS011;63553;51.814;4.600;2023-05-07T01:56:20;9.45;;;7.35;;
75005;SDS011;63553;51.814;4.600;2023-05-07T01:58:46;9.48;;;7.03;;
75005;SDS011;63553;51.814;4.600;2023-05-07T02:01:13;9.40;;;7.03;;
75005;SDS011;63553;51.814;4.600;2023-05-07T02:03:38;7.57;;;6.78;;
75005;SDS011;63553;51.814;4.600;2023-05-07T02:06:04;10.07;;;6.65;;
75005;SDS011;63553;51.814;4.600;2023-05-07T02:08:29;10.30;;;7.63;;
75005;SDS011;63553;51.814;4.600;2023-05-07T02:10:55;10.38;;;7.45;;
75005;SDS011;63553;51.814;4.600;2023-05-07T02:13:20;8.55;;;6.70;;
75005;SDS011;63553;51.814;4.600;2023-05-07T02:15:47;7.75;;;6.95;;
75005;SDS011;63553;51.814;4.600;2023-05-07T02:18:15;8.73;;;7.10;;
75005;SDS011;63553;51.814;4.600;2023-05-07T02:20:41;10.63;;;7.57;;
75005;SDS011;63553;51.814;4.600;2023-05-07T02:23:06;8.63;;;7.37;;
75005;SDS011;63553;51.814;4.600;2023-05-07T02:25:31;7.07;;;6.37;;
75005;SDS011;63553;51.814;4.600;2023-05-07T02:27:57;9.70;;;7.70;;
75005;SDS011;63553;51.814;4.600;2023-05-07T02:30:22;8.03;;;6.77;;
75005;SDS011;63553;51.814;4.600;2023-05-07T02:32:48;11.02;;;7.85;;
75005;SDS011;63553;51.814;4.600;2023-05-07T02:35:14;8.77;;;6.97;;
75005;SDS011;63553;51.814;4.600;2023-05-07T02:37:39;8.27;;;7.10;;
75005;SDS011;63553;51.814;4.600;2023-05-07T02:40:04;9.82;;;8.00;;
75005;SDS011;63553;51.814;4.600;2023-05-07T02:42:30;9.45;;;7.32;;
75005;SDS011;63553;51.814;4.600;2023-05-07T02:44:56;9.25;;;7.03;;
75005;SDS011;63553;51.814;4.600;2023-05-07T02:47:21;8.33;;;6.33;;
75005;SDS011;63553;51.814;4.600;2023-05-07T02:49:47;7.07;;;6.38;;
75005;SDS011;63553;51.814;4.600;2023-05-07T02:52:12;8.90;;;6.93;;
75005;SDS011;63553;51.814;4.600;2023-05-07T02:54:38;8.10;;;7.05;;
75005;SDS011;63553;51.814;4.600;2023-05-07T02:57:03;8.83;;;7.03;;
75005;SDS011;63553;51.814;4.600;2023-05-07T02:59:28;6.30;;;5.70;;
75005;SDS011;63553;51.814;4.600;2023-05-07T03:01:54;9.27;;;7.00;;
75005;SDS011;63553;51.814;4.600;2023-05-07T03:04:19;8.93;;;7.70;;
75005;SDS011;63553;51.814;4.600;2023-05-07T03:06:45;10.27;;;7.85;;
75005;SDS011;63553;51.814;4.600;2023-05-07T03:09:10;10.43;;;7.40;;
75005;SDS011;63553;51.814;4.600;2023-05-07T03:11:35;9.57;;;6.33;;
75005;SDS011;63553;51.814;4.600;2023-05-07T03:14:01;8.55;;;6.43;;
75005;SDS011;63553;51.814;4.600;2023-05-07T03:16:27;9.70;;;7.45;;
75005;SDS011;63553;51.814;4.600;2023-05-07T03:18:52;10.07;;;6.88;;
75005;SDS011;63553;51.814;4.600;2023-05-07T03:21:18;8.47;;;7.37;;
75005;SDS011;63553;51.814;4.600;2023-05-07T03:23:43;10.10;;;6.82;;
75005;SDS011;63553;51.814;4.600;2023-05-07T03:26:08;9.13;;;7.17;;
75005;SDS011;63553;51.814;4.600;2023-05-07T03:28:34;9.93;;;7.10;;
75005;SDS011;63553;51.814;4.600;2023-05-07T03:30:59;9.23;;;7.65;;
75005;SDS011;63553;51.814;4.600;2023-05-07T03:33:25;6.25;;;5.60;;
75005;SDS011;63553;51.814;4.600;2023-05-07T03:35:50;7.60;;;6.73;;
75005;SDS011;63553;51.814;4.600;2023-05-07T03:38:15;7.37;;;6.47;;
75005;SDS011;63553;51.814;4.600;2023-05-07T03:40:41;7.43;;;6.40;;
75005;SDS011;63553;51.814;4.600;2023-05-07T03:43:06;8.67;;;7.20;;
75005;SDS011;63553;51.814;4.600;2023-05-07T03:45:31;8.43;;;6.93;;
75005;SDS011;63553;51.814;4.600;2023-05-07T03:47:57;7.10;;;6.40;;
75005;SDS011;63553;51.814;4.600;2023-05-07T03:50:22;10.30;;;7.73;;
75005;SDS011;63553;51.814;4.600;2023-05-07T03:52:47;9.87;;;7.27;;
75005;SDS011;63553;51.814;4.600;2023-05-07T03:55:13;10.57;;;7.90;;
75005;SDS011;63553;51.814;4.600;2023-05-07T03:57:38;7.67;;;6.17;;
75005;SDS011;63553;51.814;4.600;2023-05-07T04:00:03;8.57;;;7.07;;
75005;SDS011;63553;51.814;4.600;2023-05-07T04:02:30;10.00;;;6.97;;
75005;SDS011;63553;51.814;4.600;2023-05-07T04:04:55;11.73;;;7.07;;
75005;SDS011;63553;51.814;4.600;2023-05-07T04:07:21;9.00;;;6.97;;
75005;SDS011;63553;51.814;4.600;2023-05-07T04:09:46;8.55;;;7.03;;
75005;SDS011;63553;51.814;4.600;2023-05-07T04:12:11;11.33;;;7.67;;
75005;SDS011;63553;51.814;4.600;2023-05-07T04:14:37;9.23;;;7.93;;
75005;SDS011;63553;51.814;4.600;2023-05-07T04:17:02;8.40;;;6.83;;
75005;SDS011;63553;51.814;4.600;2023-05-07T04:19:27;12.65;;;8.65;;
75005;SDS011;63553;51.814;4.600;2023-05-07T04:21:53;9.40;;;7.80;;
75005;SDS011;63553;51.814;4.600;2023-05-07T04:24:18;9.93;;;7.70;;
75005;SDS011;63553;51.814;4.600;2023-05-07T04:26:43;10.17;;;7.67;;
75005;SDS011;63553;51.814;4.600;2023-05-07T04:29:09;7.27;;;6.50;;
75005;SDS011;63553;51.814;4.600;2023-05-07T04:31:34;10.70;;;7.88;;
75005;SDS011;63553;51.814;4.600;2023-05-07T04:33:59;11.85;;;8.60;;
75005;SDS011;63553;51.814;4.600;2023-05-07T04:36:25;10.80;;;8.23;;
75005;SDS011;63553;51.814;4.600;2023-05-07T04:38:52;10.00;;;7.72;;
75005;SDS011;63553;51.814;4.600;2023-05-07T04:41:18;10.55;;;7.72;;
75005;SDS011;63553;51.814;4.600;2023-05-07T04:43:43;11.10;;;9.00;;
75005;SDS011;63553;51.814;4.600;2023-05-07T04:46:08;9.17;;;7.27;;
75005;SDS011;63553;51.814;4.600;2023-05-07T04:48:34;7.60;;;6.80;;
75005;SDS011;63553;51.814;4.600;2023-05-07T04:50:59;10.48;;;8.02;;
75005;SDS011;63553;51.814;4.600;2023-05-07T04:53:25;11.25;;;8.63;;
75005;SDS011;63553;51.814;4.600;2023-05-07T04:55:54;9.98;;;8.65;;
75005;SDS011;63553;51.814;4.600;2023-05-07T04:58:20;11.70;;;8.32;;
75005;SDS011;63553;51.814;4.600;2023-05-07T05:00:46;12.57;;;7.97;;
75005;SDS011;63553;51.814;4.600;2023-05-07T05:03:11;7.88;;;6.55;;
75005;SDS011;63553;51.814;4.600;2023-05-07T05:05:36;10.73;;;7.80;;
75005;SDS011;63553;51.814;4.600;2023-05-07T05:08:02;12.17;;;8.53;;
75005;SDS011;63553;51.814;4.600;2023-05-07T05:10:27;12.20;;;9.02;;
75005;SDS011;63553;51.814;4.600;2023-05-07T05:12:53;9.17;;;7.37;;
75005;SDS011;63553;51.814;4.600;2023-05-07T05:15:18;10.97;;;8.90;;
75005;SDS011;63553;51.814;4.600;2023-05-07T05:17:43;10.52;;;8.13;;
75005;SDS011;63553;51.814;4.600;2023-05-07T05:20:09;10.52;;;8.60;;
75005;SDS011;63553;51.814;4.600;2023-05-07T05:22:37;11.80;;;8.55;;
75005;SDS011;63553;51.814;4.600;2023-05-07T05:25:03;12.18;;;8.73;;
75005;SDS011;63553;51.814;4.600;2023-05-07T05:27:29;12.05;;;9.27;;
75005;SDS011;63553;51.814;4.600;2023-05-07T05:29:54;10.98;;;8.60;;
75005;SDS011;63553;51.814;4.600;2023-05-07T05:32:20;11.00;;;8.52;;
75005;SDS011;63553;51.814;4.600;2023-05-07T05:34:45;11.60;;;9.85;;
75005;SDS011;63553;51.814;4.600;2023-05-07T05:37:10;11.73;;;9.80;;
75005;SDS011;63553;51.814;4.600;2023-05-07T05:39:36;13.65;;;9.85;;
75005;SDS011;63553;51.814;4.600;2023-05-07T05:42:01;10.43;;;8.98;;
75005;SDS011;63553;51.814;4.600;2023-05-07T05:44:27;12.07;;;9.60;;
75005;SDS011;63553;51.814;4.600;2023-05-07T05:46:52;10.83;;;9.27;;
75005;SDS011;63553;51.814;4.600;2023-05-07T05:49:20;11.65;;;9.27;;
75005;SDS011;63553;51.814;4.600;2023-05-07T05:51:45;13.38;;;9.80;;
75005;SDS011;63553;51.814;4.600;2023-05-07T05:54:11;13.10;;;9.30;;
75005;SDS011;63553;51.814;4.600;2023-05-07T05:56:36;11.37;;;8.40;;
75005;SDS011;63553;51.814;4.600;2023-05-07T05:59:02;13.00;;;9.40;;
75005;SDS011;63553;51.814;4.600;2023-05-07T06:01:27;12.88;;;9.23;;
75005;SDS011;63553;51.814;4.600;2023-05-07T06:03:53;11.40;;;9.35;;
75005;SDS011;63553;51.814;4.600;2023-05-07T06:06:18;12.83;;;9.67;;
75005;SDS011;63553;51.814;4.600;2023-05-07T06:08:43;13.97;;;10.00;;
75005;SDS011;63553;51.814;4.600;2023-05-07T06:11:09;13.70;;;9.73;;
75005;SDS011;63553;51.814;4.600;2023-05-07T06:13:34;14.70;;;10.02;;
75005;SDS011;63553;51.814;4.600;2023-05-07T06:15:59;15.07;;;9.63;;
75005;SDS011;63553;51.814;4.600;2023-05-07T06:18:25;16.23;;;11.27;;
75005;SDS011;63553;51.814;4.600;2023-05-07T06:20:51;13.40;;;10.10;;
75005;SDS011;63553;51.814;4.600;2023-05-07T06:23:17;12.82;;;10.68;;
75005;SDS011;63553;51.814;4.600;2023-05-07T06:25:45;15.93;;;10.97;;
75005;SDS011;63553;51.814;4.600;2023-05-07T06:28:13;13.57;;;10.70;;
75005;SDS011;63553;51.814;4.600;2023-05-07T06:30:38;12.83;;;11.30;;
75005;SDS011;63553;51.814;4.600;2023-05-07T06:33:05;15.73;;;11.00;;
75005;SDS011;63553;51.814;4.600;2023-05-07T06:35:30;16.77;;;11.07;;
75005;SDS011;63553;51.814;4.600;2023-05-07T06:37:55;12.87;;;9.80;;
75005;SDS011;63553;51.814;4.600;2023-05-07T06:40:21;16.17;;;10.97;;
75005;SDS011;63553;51.814;4.600;2023-05-07T06:42:46;16.67;;;11.03;;
75005;SDS011;63553;51.814;4.600;2023-05-07T06:45:11;15.23;;;11.63;;
75005;SDS011;63553;51.814;4.600;2023-05-07T06:47:37;14.82;;;11.75;;
75005;SDS011;63553;51.814;4.600;2023-05-07T06:50:02;16.10;;;10.97;;
75005;SDS011;63553;51.814;4.600;2023-05-07T06:52:27;15.30;;;11.02;;
75005;SDS011;63553;51.814;4.600;2023-05-07T06:54:53;13.50;;;10.73;;
75005;SDS011;63553;51.814;4.600;2023-05-07T06:57:18;15.70;;;11.13;;
75005;SDS011;63553;51.814;4.600;2023-05-07T06:59:43;13.13;;;10.33;;
75005;SDS011;63553;51.814;4.600;2023-05-07T07:02:09;15.60;;;10.40;;
75005;SDS011;63553;51.814;4.600;2023-05-07T07:04:34;13.77;;;9.95;;
75005;SDS011;63553;51.814;4.600;2023-05-07T07:06:59;14.80;;;10.07;;
75005;SDS011;63553;51.814;4.600;2023-05-07T07:09:25;13.10;;;10.50;;
75005;SDS011;63553;51.814;4.600;2023-05-07T07:11:50;17.60;;;10.77;;
75005;SDS011;63553;51.814;4.600;2023-05-07T07:14:15;14.87;;;10.93;;
75005;SDS011;63553;51.814;4.600;2023-05-07T07:16:41;16.42;;;11.00;;
75005;SDS011;63553;51.814;4.600;2023-05-07T07:19:06;13.87;;;10.27;;
75005;SDS011;63553;51.814;4.600;2023-05-07T07:21:32;13.07;;;10.25;;
75005;SDS011;63553;51.814;4.600;2023-05-07T07:23:57;13.48;;;11.13;;
75005;SDS011;63553;51.814;4.600;2023-05-07T07:26:22;14.85;;;11.27;;
75005;SDS011;63553;51.814;4.600;2023-05-07T07:28:48;16.85;;;11.98;;
75005;SDS011;63553;51.814;4.600;2023-05-07T07:31:13;14.67;;;11.07;;
75005;SDS011;63553;51.814;4.600;2023-05-07T07:33:38;13.10;;;11.07;;
75005;SDS011;63553;51.814;4.600;2023-05-07T07:36:05;13.20;;;10.63;;
75005;SDS011;63553;51.814;4.600;2023-05-07T07:38:31;13.48;;;10.77;;
75005;SDS011;63553;51.814;4.600;2023-05-07T07:40:56;14.45;;;11.57;;
75005;SDS011;63553;51.814;4.600;2023-05-07T07:43:22;13.77;;;11.37;;
75005;SDS011;63553;51.814;4.600;2023-05-07T07:45:47;15.53;;;12.17;;
75005;SDS011;63553;51.814;4.600;2023-05-07T07:48:12;14.25;;;11.95;;
75005;SDS011;63553;51.814;4.600;2023-05-07T07:50:38;13.33;;;10.37;;
75005;SDS011;63553;51.814;4.600;2023-05-07T07:53:03;17.48;;;11.52;;
75005;SDS011;63553;51.814;4.600;2023-05-07T07:55:29;16.10;;;12.13;;
75005;SDS011;63553;51.814;4.600;2023-05-07T07:57:56;16.02;;;12.43;;
75005;SDS011;63553;51.814;4.600;2023-05-07T08:00:21;12.30;;;10.52;;
75005;SDS011;63553;51.814;4.600;2023-05-07T08:02:46;16.23;;;12.45;;
75005;SDS011;63553;51.814;4.600;2023-05-07T08:05:12;15.60;;;12.10;;
75005;SDS011;63553;51.814;4.600;2023-05-07T08:07:37;15.68;;;12.40;;
75005;SDS011;63553;51.814;4.600;2023-05-07T08:10:03;16.93;;;11.63;;
75005;SDS011;63553;51.814;4.600;2023-05-07T08:12:29;14.43;;;11.50;;
75005;SDS011;63553;51.814;4.600;2023-05-07T08:14:54;14.77;;;11.15;;
75005;SDS011;63553;51.814;4.600;2023-05-07T08:17:20;13.50;;;11.98;;
75005;SDS011;63553;51.814;4.600;2023-05-07T08:19:47;15.23;;;12.07;;
75005;SDS011;63553;51.814;4.600;2023-05-07T08:22:12;14.45;;;11.55;;
75005;SDS011;63553;51.814;4.600;2023-05-07T08:24:38;15.10;;;11.75;;
75005;SDS011;63553;51.814;4.600;2023-05-07T08:27:03;16.97;;;12.53;;
75005;SDS011;63553;51.814;4.600;2023-05-07T08:29:28;16.30;;;11.73;;
75005;SDS011;63553;51.814;4.600;2023-05-07T08:31:54;13.67;;;11.27;;
75005;SDS011;63553;51.814;4.600;2023-05-07T08:34:21;13.48;;;9.70;;
75005;SDS011;63553;51.814;4.600;2023-05-07T08:36:47;15.93;;;11.13;;
75005;SDS011;63553;51.814;4.600;2023-05-07T08:39:13;12.95;;;9.63;;
75005;SDS011;63553;51.814;4.600;2023-05-07T08:41:41;11.95;;;10.10;;
75005;SDS011;63553;51.814;4.600;2023-05-07T08:44:12;10.43;;;8.73;;
75005;SDS011;63553;51.814;4.600;2023-05-07T08:46:41;11.65;;;9.25;;
75005;SDS011;63553;51.814;4.600;2023-05-07T08:49:08;10.88;;;9.07;;
75005;SDS011;63553;51.814;4.600;2023-05-07T08:51:33;11.27;;;8.75;;
75005;SDS011;63553;51.814;4.600;2023-05-07T08:53:59;11.75;;;9.57;;
75005;SDS011;63553;51.814;4.600;2023-05-07T08:56:26;10.88;;;8.13;;
75005;SDS011;63553;51.814;4.600;2023-05-07T08:58:52;10.38;;;8.88;;
75005;SDS011;63553;51.814;4.600;2023-05-07T09:01:21;9.65;;;8.65;;
75005;SDS011;63553;51.814;4.600;2023-05-07T09:03:46;11.40;;;8.98;;
75005;SDS011;63553;51.814;4.600;2023-05-07T09:06:12;8.95;;;8.05;;
75005;SDS011;63553;51.814;4.600;2023-05-07T09:08:37;8.43;;;7.60;;
75005;SDS011;63553;51.814;4.600;2023-05-07T09:11:03;9.03;;;7.13;;
75005;SDS011;63553;51.814;4.600;2023-05-07T09:13:28;8.55;;;6.72;;
75005;SDS011;63553;51.814;4.600;2023-05-07T09:15:54;8.07;;;7.28;;
75005;SDS011;63553;51.814;4.600;2023-05-07T09:18:20;8.13;;;7.32;;
75005;SDS011;63553;51.814;4.600;2023-05-07T09:20:45;7.83;;;7.03;;
75005;SDS011;63553;51.814;4.600;2023-05-07T09:23:11;6.88;;;6.18;;
75005;SDS011;63553;51.814;4.600;2023-05-07T09:25:36;7.50;;;6.50;;
75005;SDS011;63553;51.814;4.600;2023-05-07T09:28:03;8.27;;;6.82;;
75005;SDS011;63553;51.814;4.600;2023-05-07T09:30:33;9.00;;;6.35;;
75005;SDS011;63553;51.814;4.600;2023-05-07T09:35:25;7.40;;;6.70;;
75005;SDS011;63553;51.814;4.600;2023-05-07T09:37:55;7.50;;;6.80;;
75005;SDS011;63553;51.814;4.600;2023-05-07T09:40:22;6.93;;;6.20;;
75005;SDS011;63553;51.814;4.600;2023-05-07T09:42:48;7.30;;;5.70;;
75005;SDS011;63553;51.814;4.600;2023-05-07T09:45:15;6.15;;;5.60;;
75005;SDS011;63553;51.814;4.600;2023-05-07T09:47:42;7.05;;;4.88;;
75005;SDS011;63553;51.814;4.600;2023-05-07T09:50:09;6.93;;;5.13;;
75005;SDS011;63553;51.814;4.600;2023-05-07T09:52:38;6.57;;;5.22;;
75005;SDS011;63553;51.814;4.600;2023-05-07T09:55:05;6.30;;;5.10;;
75005;SDS011;63553;51.814;4.600;2023-05-07T09:57:32;5.70;;;4.70;;
75005;SDS011;63553;51.814;4.600;2023-05-07T09:59:58;6.43;;;5.18;;
75005;SDS011;63553;51.814;4.600;2023-05-07T10:02:27;7.03;;;4.30;;
75005;SDS011;63553;51.814;4.600;2023-05-07T10:04:55;5.72;;;4.18;;
75005;SDS011;63553;51.814;4.600;2023-05-07T10:07:22;5.55;;;5.00;;
75005;SDS011;63553;51.814;4.600;2023-05-07T10:09:47;6.20;;;5.30;;
75005;SDS011;63553;51.814;4.600;2023-05-07T10:12:15;7.75;;;6.38;;
75005;SDS011;63553;51.814;4.600;2023-05-07T10:14:42;5.40;;;4.90;;
75005;SDS011;63553;51.814;4.600;2023-05-07T10:17:08;6.78;;;5.20;;
75005;SDS011;63553;51.814;4.600;2023-05-07T10:19:36;5.88;;;5.18;;
75005;SDS011;63553;51.814;4.600;2023-05-07T10:22:03;5.03;;;4.53;;
75005;SDS011;63553;51.814;4.600;2023-05-07T10:24:34;5.95;;;5.07;;
75005;SDS011;63553;51.814;4.600;2023-05-07T10:27:02;4.80;;;4.30;;
75005;SDS011;63553;51.814;4.600;2023-05-07T10:34:44;5.07;;;3.40;;
75005;SDS011;63553;51.814;4.600;2023-05-07T10:37:12;7.93;;;3.83;;
75005;SDS011;63553;51.814;4.600;2023-05-07T10:39:38;5.18;;;3.28;;
75005;SDS011;63553;51.814;4.600;2023-05-07T10:42:10;5.95;;;3.38;;
75005;SDS011;63553;51.814;4.600;2023-05-07T10:44:36;3.92;;;2.92;;
75005;SDS011;63553;51.814;4.600;2023-05-07T10:47:12;3.80;;;2.70;;
75005;SDS011;63553;51.814;4.600;2023-05-07T10:52:22;3.93;;;2.73;;
75005;SDS011;63553;51.814;4.600;2023-05-07T10:55:36;3.60;;;2.95;;
75005;SDS011;63553;51.814;4.600;2023-05-07T10:57:50;3.80;;;2.95;;
75005;SDS011;63553;51.814;4.600;2023-05-07T11:05:31;4.68;;;4.10;;
75005;SDS011;63553;51.814;4.600;2023-05-07T11:16:23;3.67;;;3.15;;
75005;SDS011;63553;51.814;4.600;2023-05-07T11:18:53;3.88;;;3.42;;
75005;SDS011;63553;51.814;4.600;2023-05-07T11:23:57;4.75;;;2.47;;
75005;SDS011;63553;51.814;4.600;2023-05-07T11:26:24;3.90;;;3.35;;
75005;SDS011;63553;51.814;4.600;2023-05-07T11:28:50;3.92;;;2.80;;
75005;SDS011;63553;51.814;4.600;2023-05-07T11:31:20;4.38;;;2.90;;
75005;SDS011;63553;51.814;4.600;2023-05-07T11:33:47;5.22;;;4.03;;
75005;SDS011;63553;51.814;4.600;2023-05-07T11:36:13;2.92;;;2.72;;
75005;SDS011;63553;51.814;4.600;2023-05-07T11:38:38;3.03;;;2.60;;
75005;SDS011;63553;51.814;4.600;2023-05-07T11:41:04;2.97;;;2.72;;
75005;SDS011;63553;51.814;4.600;2023-05-07T11:43:30;3.20;;;2.85;;
75005;SDS011;63553;51.814;4.600;2023-05-07T11:46:04;2.28;;;2.17;;
75005;SDS011;63553;51.814;4.600;2023-05-07T11:48:33;3.70;;;2.97;;
75005;SDS011;63553;51.814;4.600;2023-05-07T11:51:02;3.22;;;2.15;;
75005;SDS011;63553;51.814;4.600;2023-05-07T11:53:36;2.08;;;1.75;;
75005;SDS011;63553;51.814;4.600;2023-05-07T11:56:06;2.05;;;1.85;;
75005;SDS011;63553;51.814;4.600;2023-05-07T11:58:32;2.97;;;2.72;;
75005;SDS011;63553;51.814;4.600;2023-05-07T12:00:58;4.15;;;3.00;;
75005;SDS011;63553;51.814;4.600;2023-05-07T12:03:23;1.85;;;1.75;;
75005;SDS011;63553;51.814;4.600;2023-05-07T12:05:48;3.33;;;2.20;;
75005;SDS011;63553;51.814;4.600;2023-05-07T12:08:17;2.10;;;1.90;;
75005;SDS011;63553;51.814;4.600;2023-05-07T12:10:43;5.43;;;3.55;;
75005;SDS011;63553;51.814;4.600;2023-05-07T12:13:20;1.92;;;1.80;;
75005;SDS011;63553;51.814;4.600;2023-05-07T12:15:51;1.80;;;1.70;;
75005;SDS011;63553;51.814;4.600;2023-05-07T12:18:17;1.88;;;1.75;;
75005;SDS011;63553;51.814;4.600;2023-05-07T12:20:43;1.88;;;1.75;;
75005;SDS011;63553;51.814;4.600;2023-05-07T12:23:08;2.40;;;2.20;;
75005;SDS011;63553;51.814;4.600;2023-05-07T12:25:35;2.90;;;2.50;;
75005;SDS011;63553;51.814;4.600;2023-05-07T12:28:02;3.88;;;2.65;;
75005;SDS011;63553;51.814;4.600;2023-05-07T12:30:29;4.60;;;4.20;;
75005;SDS011;63553;51.814;4.600;2023-05-07T12:32:55;6.65;;;4.22;;
75005;SDS011;63553;51.814;4.600;2023-05-07T12:35:27;5.63;;;4.83;;
75005;SDS011;63553;51.814;4.600;2023-05-07T12:37:57;8.00;;;5.25;;
75005;SDS011;63553;51.814;4.600;2023-05-07T12:40:29;11.25;;;6.90;;
75005;SDS011;63553;51.814;4.600;2023-05-07T12:43:01;11.07;;;7.63;;
75005;SDS011;63553;51.814;4.600;2023-05-07T12:45:26;13.50;;;8.43;;
75005;SDS011;63553;51.814;4.600;2023-05-07T12:47:52;6.93;;;6.22;;
75005;SDS011;63553;51.814;4.600;2023-05-07T12:50:17;8.68;;;7.45;;
75005;SDS011;63553;51.814;4.600;2023-05-07T12:52:43;9.57;;;6.80;;
75005;SDS011;63553;51.814;4.600;2023-05-07T12:55:11;11.27;;;7.82;;
75005;SDS011;63553;51.814;4.600;2023-05-07T12:57:39;9.45;;;7.22;;
75005;SDS011;63553;51.814;4.600;2023-05-07T13:00:08;11.25;;;8.13;;
75005;SDS011;63553;51.814;4.600;2023-05-07T13:02:37;12.32;;;8.43;;
75005;SDS011;63553;51.814;4.600;2023-05-07T13:05:03;10.98;;;7.97;;
75005;SDS011;63553;51.814;4.600;2023-05-07T13:07:29;10.98;;;7.65;;
75005;SDS011;63553;51.814;4.600;2023-05-07T13:09:54;10.30;;;7.40;;
75005;SDS011;63553;51.814;4.600;2023-05-07T13:12:20;10.68;;;8.27;;
75005;SDS011;63553;51.814;4.600;2023-05-07T13:14:45;9.57;;;7.40;;
75005;SDS011;63553;51.814;4.600;2023-05-07T13:17:10;9.40;;;8.13;;
75005;SDS011;63553;51.814;4.600;2023-05-07T13:19:36;12.37;;;8.40;;
75005;SDS011;63553;51.814;4.600;2023-05-07T13:22:02;8.30;;;6.75;;
75005;SDS011;63553;51.814;4.600;2023-05-07T13:24:28;8.57;;;7.68;;
75005;SDS011;63553;51.814;4.600;2023-05-07T13:26:53;10.53;;;7.40;;
75005;SDS011;63553;51.814;4.600;2023-05-07T13:29:18;15.47;;;7.87;;
75005;SDS011;63553;51.814;4.600;2023-05-07T13:31:44;9.88;;;8.32;;
75005;SDS011;63553;51.814;4.600;2023-05-07T13:34:10;9.32;;;8.07;;
75005;SDS011;63553;51.814;4.600;2023-05-07T13:36:35;11.25;;;7.90;;
75005;SDS011;63553;51.814;4.600;2023-05-07T13:39:04;10.65;;;8.23;;
75005;SDS011;63553;51.814;4.600;2023-05-07T13:41:29;11.20;;;9.10;;
75005;SDS011;63553;51.814;4.600;2023-05-07T13:43:55;13.25;;;9.20;;
75005;SDS011;63553;51.814;4.600;2023-05-07T13:46:21;11.80;;;9.35;;
75005;SDS011;63553;51.814;4.600;2023-05-07T13:48:46;12.68;;;8.27;;
75005;SDS011;63553;51.814;4.600;2023-05-07T13:51:12;10.48;;;9.15;;
75005;SDS011;63553;51.814;4.600;2023-05-07T13:53:37;13.03;;;8.90;;
75005;SDS011;63553;51.814;4.600;2023-05-07T13:56:02;11.60;;;9.17;;
75005;SDS011;63553;51.814;4.600;2023-05-07T13:58:29;11.50;;;8.93;;
75005;SDS011;63553;51.814;4.600;2023-05-07T14:00:55;12.93;;;9.80;;
75005;SDS011;63553;51.814;4.600;2023-05-07T14:03:20;12.57;;;9.87;;
75005;SDS011;63553;51.814;4.600;2023-05-07T14:05:45;16.65;;;11.35;;
75005;SDS011;63553;51.814;4.600;2023-05-07T14:08:11;14.13;;;10.68;;
75005;SDS011;63553;51.814;4.600;2023-05-07T14:10:38;14.13;;;10.85;;
75005;SDS011;63553;51.814;4.600;2023-05-07T14:13:04;17.45;;;10.48;;
75005;SDS011;63553;51.814;4.600;2023-05-07T14:15:29;15.03;;;10.87;;
75005;SDS011;63553;51.814;4.600;2023-05-07T14:17:55;14.65;;;10.68;;
75005;SDS011;63553;51.814;4.600;2023-05-07T14:20:20;10.57;;;8.30;;
75005;SDS011;63553;51.814;4.600;2023-05-07T14:22:45;12.48;;;9.40;;
75005;SDS011;63553;51.814;4.600;2023-05-07T14:25:11;12.20;;;9.43;;
75005;SDS011;63553;51.814;4.600;2023-05-07T14:27:36;9.07;;;7.38;;
75005;SDS011;63553;51.814;4.600;2023-05-07T14:30:01;11.88;;;9.48;;
75005;SDS011;63553;51.814;4.600;2023-05-07T14:32:27;12.40;;;9.13;;
75005;SDS011;63553;51.814;4.600;2023-05-07T14:34:52;15.13;;;10.37;;
75005;SDS011;63553;51.814;4.600;2023-05-07T14:37:17;11.03;;;8.67;;
75005;SDS011;63553;51.814;4.600;2023-05-07T14:39:44;12.13;;;10.00;;
75005;SDS011;63553;51.814;4.600;2023-05-07T14:42:10;14.85;;;11.25;;
75005;SDS011;63553;51.814;4.600;2023-05-07T14:44:36;12.63;;;10.05;;
75005;SDS011;63553;51.814;4.600;2023-05-07T14:47:01;20.27;;;10.98;;
75005;SDS011;63553;51.814;4.600;2023-05-07T14:49:27;13.55;;;11.20;;
75005;SDS011;63553;51.814;4.600;2023-05-07T14:51:52;15.20;;;10.82;;
75005;SDS011;63553;51.814;4.600;2023-05-07T14:54:18;12.00;;;9.80;;
75005;SDS011;63553;51.814;4.600;2023-05-07T14:56:44;10.70;;;8.90;;